sensor_id;sensor_type;location;lat;lon;timestamp;P1;durP1;ratioP1;P2;durP2;ratioP2
47365;SDS011;33105;47.964;7.982;2023-05-07T00:01:53;8.18;;;3.08;;
47365;SDS011;33105;47.964;7.982;2023-05-07T00:04:54;8.68;;;2.40;;
47365;SDS011;33105;47.964;7.982;2023-05-07T00:07:56;7.78;;;2.00;;
47365;SDS011;33105;47.964;7.982;2023-05-07T00:10:57;6.15;;;1.92;;
47365;SDS011;33105;47.964;7.982;2023-05-07T00:13:58;3.72;;;1.90;;
47365;SDS011;33105;47.964;7.982;2023-05-07T00:16:59;6.38;;;2.17;;
47365;SDS011;33105;47.964;7.982;2023-05-07T00:20:02;7.53;;;2.47;;
47365;SDS011;33105;47.964;7.982;2023-05-07T00:23:04;7.82;;;2.63;;
47365;SDS011;33105;47.964;7.982;2023-05-07T00:26:05;6.43;;;1.95;;
47365;SDS011;33105;47.964;7.982;2023-05-07T00:29:06;4.03;;;2.15;;
47365;SDS011;33105;47.964;7.982;2023-05-07T00:32:08;5.18;;;2.15;;
47365;SDS011;33105;47.964;7.982;2023-05-07T00:35:09;2.10;;;1.90;;
47365;SDS011;33105;47.964;7.982;2023-05-07T00:38:10;2.28;;;2.00;;
47365;SDS011;33105;47.964;7.982;2023-05-07T00:41:12;2.97;;;1.95;;
47365;SDS011;33105;47.964;7.982;2023-05-07T00:44:13;4.72;;;2.13;;
47365;SDS011;33105;47.964;7.982;2023-05-07T00:47:16;4.05;;;2.25;;
47365;SDS011;33105;47.964;7.982;2023-05-07T00:50:18;4.18;;;1.95;;
47365;SDS011;33105;47.964;7.982;2023-05-07T00:53:20;6.43;;;1.85;;
47365;SDS011;33105;47.964;7.982;2023-05-07T00:56:22;3.28;;;1.88;;
47365;SDS011;33105;47.964;7.982;2023-05-07T00:59:24;7.03;;;1.95;;
47365;SDS011;33105;47.964;7.982;2023-05-07T01:02:25;5.45;;;2.33;;
47365;SDS011;33105;47.964;7.982;2023-05-07T01:05:27;6.15;;;2.40;;
47365;SDS011;33105;47.964;7.982;2023-05-07T01:08:29;2.42;;;2.22;;
47365;SDS011;33105;47.964;7.982;2023-05-07T01:11:32;5.82;;;2.50;;
47365;SDS011;33105;47.964;7.982;2023-05-07T01:14:33;5.72;;;2.58;;
47365;SDS011;33105;47.964;7.982;2023-05-07T01:17:36;5.43;;;2.22;;
47365;SDS011;33105;47.964;7.982;2023-05-07T01:20:41;4.55;;;2.28;;
47365;SDS011;33105;47.964;7.982;2023-05-07T01:23:43;4.25;;;2.20;;
47365;SDS011;33105;47.964;7.982;2023-05-07T01:26:45;3.55;;;2.53;;
47365;SDS011;33105;47.964;7.982;2023-05-07T01:29:49;4.50;;;1.92;;
47365;SDS011;33105;47.964;7.982;2023-05-07T01:32:52;5.22;;;2.00;;
47365;SDS011;33105;47.964;7.982;2023-05-07T01:35:59;2.45;;;1.90;;
47365;SDS011;33105;47.964;7.982;2023-05-07T01:39:02;8.20;;;2.42;;
47365;SDS011;33105;47.964;7.982;2023-05-07T01:42:05;6.03;;;2.13;;
47365;SDS011;33105;47.964;7.982;2023-05-07T01:45:06;5.38;;;2.40;;
47365;SDS011;33105;47.964;7.982;2023-05-07T01:48:09;4.45;;;2.13;;
47365;SDS011;33105;47.964;7.982;2023-05-07T01:51:12;3.78;;;2.22;;
47365;SDS011;33105;47.964;7.982;2023-05-07T01:54:13;4.53;;;2.13;;
47365;SDS011;33105;47.964;7.982;2023-05-07T01:57:15;3.53;;;2.08;;
47365;SDS011;33105;47.964;7.982;2023-05-07T02:00:16;4.60;;;2.20;;
47365;SDS011;33105;47.964;7.982;2023-05-07T02:03:19;3.05;;;1.90;;
47365;SDS011;33105;47.964;7.982;2023-05-07T02:06:29;5.47;;;2.15;;
47365;SDS011;33105;47.964;7.982;2023-05-07T02:09:37;4.43;;;2.22;;
47365;SDS011;33105;47.964;7.982;2023-05-07T02:12:39;2.40;;;1.60;;
47365;SDS011;33105;47.964;7.982;2023-05-07T02:15:40;4.93;;;2.00;;
47365;SDS011;33105;47.964;7.982;2023-05-07T02:18:42;10.30;;;2.05;;
47365;SDS011;33105;47.964;7.982;2023-05-07T02:21:43;4.28;;;2.05;;
47365;SDS011;33105;47.964;7.982;2023-05-07T02:24:44;5.70;;;2.22;;
47365;SDS011;33105;47.964;7.982;2023-05-07T02:27:46;3.53;;;2.03;;
47365;SDS011;33105;47.964;7.982;2023-05-07T02:30:48;2.25;;;2.05;;
47365;SDS011;33105;47.964;7.982;2023-05-07T02:33:49;3.08;;;2.17;;
47365;SDS011;33105;47.964;7.982;2023-05-07T02:36:50;3.72;;;2.65;;
47365;SDS011;33105;47.964;7.982;2023-05-07T02:39:55;3.45;;;2.22;;
47365;SDS011;33105;47.964;7.982;2023-05-07T02:42:56;3.85;;;2.42;;
47365;SDS011;33105;47.964;7.982;2023-05-07T02:46:04;3.05;;;1.83;;
47365;SDS011;33105;47.964;7.982;2023-05-07T02:49:08;5.47;;;2.28;;
47365;SDS011;33105;47.964;7.982;2023-05-07T02:52:10;9.60;;;2.40;;
47365;SDS011;33105;47.964;7.982;2023-05-07T02:55:11;4.28;;;2.08;;
47365;SDS011;33105;47.964;7.982;2023-05-07T02:58:12;4.60;;;2.25;;
47365;SDS011;33105;47.964;7.982;2023-05-07T03:01:15;3.60;;;2.20;;
47365;SDS011;33105;47.964;7.982;2023-05-07T03:04:25;3.70;;;2.10;;
47365;SDS011;33105;47.964;7.982;2023-05-07T03:07:26;4.68;;;2.08;;
47365;SDS011;33105;47.964;7.982;2023-05-07T03:10:27;2.83;;;2.08;;
47365;SDS011;33105;47.964;7.982;2023-05-07T03:13:29;3.75;;;1.95;;
47365;SDS011;33105;47.964;7.982;2023-05-07T03:16:30;3.42;;;2.20;;
47365;SDS011;33105;47.964;7.982;2023-05-07T03:19:31;3.83;;;2.45;;
47365;SDS011;33105;47.964;7.982;2023-05-07T03:22:33;2.55;;;2.08;;
47365;SDS011;33105;47.964;7.982;2023-05-07T03:25:34;4.05;;;2.15;;
47365;SDS011;33105;47.964;7.982;2023-05-07T03:28:36;6.20;;;2.40;;
47365;SDS011;33105;47.964;7.982;2023-05-07T03:31:40;5.25;;;2.28;;
47365;SDS011;33105;47.964;7.982;2023-05-07T03:34:41;4.80;;;2.45;;
47365;SDS011;33105;47.964;7.982;2023-05-07T03:37:45;2.67;;;2.25;;
47365;SDS011;33105;47.964;7.982;2023-05-07T03:40:47;7.32;;;2.42;;
47365;SDS011;33105;47.964;7.982;2023-05-07T03:43:48;2.90;;;2.47;;
47365;SDS011;33105;47.964;7.982;2023-05-07T03:46:50;4.68;;;2.70;;
47365;SDS011;33105;47.964;7.982;2023-05-07T03:49:51;4.93;;;2.63;;
47365;SDS011;33105;47.964;7.982;2023-05-07T03:52:53;6.00;;;2.08;;
47365;SDS011;33105;47.964;7.982;2023-05-07T03:55:56;4.28;;;2.63;;
47365;SDS011;33105;47.964;7.982;2023-05-07T03:58:59;3.15;;;2.80;;
47365;SDS011;33105;47.964;7.982;2023-05-07T04:02:02;6.18;;;2.60;;
47365;SDS011;33105;47.964;7.982;2023-05-07T04:05:05;6.35;;;2.63;;
47365;SDS011;33105;47.964;7.982;2023-05-07T04:08:07;6.55;;;2.42;;
47365;SDS011;33105;47.964;7.982;2023-05-07T04:11:14;3.00;;;2.42;;
47365;SDS011;33105;47.964;7.982;2023-05-07T04:14:15;4.35;;;2.60;;
47365;SDS011;33105;47.964;7.982;2023-05-07T04:17:17;7.78;;;2.97;;
47365;SDS011;33105;47.964;7.982;2023-05-07T04:20:18;5.32;;;2.65;;
47365;SDS011;33105;47.964;7.982;2023-05-07T04:23:24;7.72;;;3.65;;
47365;SDS011;33105;47.964;7.982;2023-05-07T04:26:26;7.70;;;2.97;;
47365;SDS011;33105;47.964;7.982;2023-05-07T04:29:29;3.80;;;2.67;;
47365;SDS011;33105;47.964;7.982;2023-05-07T04:32:30;5.00;;;2.40;;
47365;SDS011;33105;47.964;7.982;2023-05-07T04:35:32;7.63;;;3.03;;
47365;SDS011;33105;47.964;7.982;2023-05-07T04:38:34;4.18;;;2.53;;
47365;SDS011;33105;47.964;7.982;2023-05-07T04:41:37;5.30;;;2.55;;
47365;SDS011;33105;47.964;7.982;2023-05-07T04:44:40;4.22;;;2.13;;
47365;SDS011;33105;47.964;7.982;2023-05-07T04:47:41;5.13;;;2.65;;
47365;SDS011;33105;47.964;7.982;2023-05-07T04:50:42;3.50;;;2.15;;
47365;SDS011;33105;47.964;7.982;2023-05-07T04:53:44;4.93;;;2.60;;
47365;SDS011;33105;47.964;7.982;2023-05-07T04:56:45;6.05;;;2.65;;
47365;SDS011;33105;47.964;7.982;2023-05-07T04:59:47;4.90;;;2.30;;
47365;SDS011;33105;47.964;7.982;2023-05-07T05:02:48;4.63;;;2.55;;
47365;SDS011;33105;47.964;7.982;2023-05-07T05:05:53;2.72;;;2.20;;
47365;SDS011;33105;47.964;7.982;2023-05-07T05:08:56;3.88;;;2.33;;
47365;SDS011;33105;47.964;7.982;2023-05-07T05:11:57;4.88;;;2.97;;
47365;SDS011;33105;47.964;7.982;2023-05-07T05:14:59;4.50;;;2.72;;
47365;SDS011;33105;47.964;7.982;2023-05-07T05:18:01;3.78;;;2.72;;
47365;SDS011;33105;47.964;7.982;2023-05-07T05:21:03;6.18;;;2.85;;
47365;SDS011;33105;47.964;7.982;2023-05-07T05:24:05;8.77;;;2.78;;
47365;SDS011;33105;47.964;7.982;2023-05-07T05:27:06;7.78;;;4.25;;
47365;SDS011;33105;47.964;7.982;2023-05-07T05:30:08;8.23;;;4.45;;
47365;SDS011;33105;47.964;7.982;2023-05-07T05:33:10;5.93;;;3.83;;
47365;SDS011;33105;47.964;7.982;2023-05-07T05:36:11;5.95;;;3.38;;
47365;SDS011;33105;47.964;7.982;2023-05-07T05:39:13;9.57;;;4.28;;
47365;SDS011;33105;47.964;7.982;2023-05-07T05:42:15;6.80;;;3.35;;
47365;SDS011;33105;47.964;7.982;2023-05-07T05:45:16;8.85;;;3.30;;
47365;SDS011;33105;47.964;7.982;2023-05-07T05:48:20;6.15;;;3.17;;
47365;SDS011;33105;47.964;7.982;2023-05-07T05:51:21;9.02;;;4.50;;
47365;SDS011;33105;47.964;7.982;2023-05-07T05:54:22;8.45;;;4.00;;
47365;SDS011;33105;47.964;7.982;2023-05-07T05:57:24;7.55;;;3.00;;
47365;SDS011;33105;47.964;7.982;2023-05-07T06:00:25;6.22;;;2.78;;
47365;SDS011;33105;47.964;7.982;2023-05-07T06:03:35;5.15;;;2.60;;
47365;SDS011;33105;47.964;7.982;2023-05-07T06:06:40;8.38;;;3.42;;
47365;SDS011;33105;47.964;7.982;2023-05-07T06:09:42;6.03;;;2.80;;
47365;SDS011;33105;47.964;7.982;2023-05-07T06:12:44;8.60;;;3.83;;
47365;SDS011;33105;47.964;7.982;2023-05-07T06:15:45;7.60;;;3.33;;
47365;SDS011;33105;47.964;7.982;2023-05-07T06:18:48;4.28;;;3.00;;
47365;SDS011;33105;47.964;7.982;2023-05-07T06:21:50;7.32;;;3.20;;
47365;SDS011;33105;47.964;7.982;2023-05-07T06:24:52;5.75;;;2.92;;
47365;SDS011;33105;47.964;7.982;2023-05-07T06:27:53;12.75;;;3.40;;
47365;SDS011;33105;47.964;7.982;2023-05-07T06:30:54;4.15;;;2.42;;
47365;SDS011;33105;47.964;7.982;2023-05-07T06:33:55;3.45;;;2.60;;
47365;SDS011;33105;47.964;7.982;2023-05-07T06:36:59;5.32;;;2.53;;
47365;SDS011;33105;47.964;7.982;2023-05-07T06:40:20;7.78;;;2.88;;
47365;SDS011;33105;47.964;7.982;2023-05-07T06:43:23;6.25;;;2.22;;
47365;SDS011;33105;47.964;7.982;2023-05-07T06:46:48;6.57;;;2.60;;
47365;SDS011;33105;47.964;7.982;2023-05-07T06:49:49;3.47;;;2.35;;
47365;SDS011;33105;47.964;7.982;2023-05-07T06:52:52;2.78;;;2.00;;
47365;SDS011;33105;47.964;7.982;2023-05-07T06:55:54;11.15;;;2.70;;
47365;SDS011;33105;47.964;7.982;2023-05-07T06:58:55;2.50;;;2.30;;
47365;SDS011;33105;47.964;7.982;2023-05-07T07:01:56;4.05;;;2.53;;
47365;SDS011;33105;47.964;7.982;2023-05-07T07:04:58;4.63;;;2.42;;
47365;SDS011;33105;47.964;7.982;2023-05-07T07:08:00;7.00;;;2.55;;
47365;SDS011;33105;47.964;7.982;2023-05-07T07:11:01;2.42;;;2.10;;
47365;SDS011;33105;47.964;7.982;2023-05-07T07:14:04;3.80;;;2.50;;
47365;SDS011;33105;47.964;7.982;2023-05-07T07:17:09;3.95;;;2.20;;
47365;SDS011;33105;47.964;7.982;2023-05-07T07:20:10;4.78;;;2.08;;
47365;SDS011;33105;47.964;7.982;2023-05-07T07:23:11;3.58;;;2.47;;
47365;SDS011;33105;47.964;7.982;2023-05-07T07:26:13;6.85;;;2.40;;
47365;SDS011;33105;47.964;7.982;2023-05-07T07:29:14;5.18;;;2.80;;
47365;SDS011;33105;47.964;7.982;2023-05-07T07:32:17;10.10;;;2.80;;
47365;SDS011;33105;47.964;7.982;2023-05-07T07:35:19;7.18;;;2.30;;
47365;SDS011;33105;47.964;7.982;2023-05-07T07:38:22;4.55;;;2.10;;
47365;SDS011;33105;47.964;7.982;2023-05-07T07:41:24;5.97;;;2.13;;
47365;SDS011;33105;47.964;7.982;2023-05-07T07:44:25;11.27;;;2.72;;
47365;SDS011;33105;47.964;7.982;2023-05-07T07:47:33;5.00;;;2.05;;
47365;SDS011;33105;47.964;7.982;2023-05-07T07:50:34;3.88;;;2.40;;
47365;SDS011;33105;47.964;7.982;2023-05-07T07:53:35;6.20;;;2.50;;
47365;SDS011;33105;47.964;7.982;2023-05-07T07:56:37;6.45;;;2.33;;
47365;SDS011;33105;47.964;7.982;2023-05-07T07:59:40;4.95;;;2.30;;
47365;SDS011;33105;47.964;7.982;2023-05-07T08:02:43;3.80;;;2.10;;
47365;SDS011;33105;47.964;7.982;2023-05-07T08:05:49;6.72;;;2.30;;
47365;SDS011;33105;47.964;7.982;2023-05-07T08:08:52;4.38;;;2.03;;
47365;SDS011;33105;47.964;7.982;2023-05-07T08:11:53;3.08;;;2.28;;
47365;SDS011;33105;47.964;7.982;2023-05-07T08:14:55;4.35;;;2.50;;
47365;SDS011;33105;47.964;7.982;2023-05-07T08:17:56;3.60;;;1.88;;
47365;SDS011;33105;47.964;7.982;2023-05-07T08:20:59;6.60;;;2.55;;
47365;SDS011;33105;47.964;7.982;2023-05-07T08:24:01;3.53;;;2.20;;
47365;SDS011;33105;47.964;7.982;2023-05-07T08:27:04;4.90;;;2.03;;
47365;SDS011;33105;47.964;7.982;2023-05-07T08:30:05;3.40;;;1.90;;
47365;SDS011;33105;47.964;7.982;2023-05-07T08:33:08;3.97;;;1.85;;
47365;SDS011;33105;47.964;7.982;2023-05-07T08:36:10;4.65;;;2.13;;
47365;SDS011;33105;47.964;7.982;2023-05-07T08:39:12;5.43;;;2.53;;
47365;SDS011;33105;47.964;7.982;2023-05-07T08:42:13;4.57;;;2.40;;
47365;SDS011;33105;47.964;7.982;2023-05-07T08:45:18;5.97;;;2.30;;
47365;SDS011;33105;47.964;7.982;2023-05-07T08:48:25;4.18;;;2.25;;
47365;SDS011;33105;47.964;7.982;2023-05-07T08:51:34;4.63;;;2.47;;
47365;SDS011;33105;47.964;7.982;2023-05-07T08:54:36;5.43;;;2.17;;
47365;SDS011;33105;47.964;7.982;2023-05-07T08:57:40;5.10;;;2.20;;
47365;SDS011;33105;47.964;7.982;2023-05-07T09:00:42;8.18;;;2.75;;
47365;SDS011;33105;47.964;7.982;2023-05-07T09:03:46;4.07;;;2.15;;
47365;SDS011;33105;47.964;7.982;2023-05-07T09:06:49;3.80;;;2.20;;
47365;SDS011;33105;47.964;7.982;2023-05-07T09:09:54;5.38;;;2.28;;
47365;SDS011;33105;47.964;7.982;2023-05-07T09:12:58;6.38;;;2.33;;
47365;SDS011;33105;47.964;7.982;2023-05-07T09:16:09;4.82;;;2.17;;
47365;SDS011;33105;47.964;7.982;2023-05-07T09:19:12;4.80;;;2.28;;
47365;SDS011;33105;47.964;7.982;2023-05-07T09:22:18;3.15;;;2.30;;
47365;SDS011;33105;47.964;7.982;2023-05-07T09:25:32;3.53;;;2.30;;
47365;SDS011;33105;47.964;7.982;2023-05-07T09:28:40;11.63;;;2.80;;
47365;SDS011;33105;47.964;7.982;2023-05-07T09:31:44;4.45;;;2.70;;
47365;SDS011;33105;47.964;7.982;2023-05-07T09:34:49;3.83;;;2.33;;
47365;SDS011;33105;47.964;7.982;2023-05-07T09:37:54;5.13;;;2.20;;
47365;SDS011;33105;47.964;7.982;2023-05-07T09:44:08;6.80;;;2.53;;
47365;SDS011;33105;47.964;7.982;2023-05-07T09:47:16;7.80;;;2.85;;
47365;SDS011;33105;47.964;7.982;2023-05-07T09:50:30;3.92;;;2.55;;
47365;SDS011;33105;47.964;7.982;2023-05-07T09:53:37;7.53;;;3.00;;
47365;SDS011;33105;47.964;7.982;2023-05-07T09:56:39;6.05;;;3.35;;
47365;SDS011;33105;47.964;7.982;2023-05-07T09:59:44;8.80;;;3.58;;
47365;SDS011;33105;47.964;7.982;2023-05-07T10:02:50;4.95;;;3.22;;
47365;SDS011;33105;47.964;7.982;2023-05-07T10:05:58;7.22;;;3.10;;
47365;SDS011;33105;47.964;7.982;2023-05-07T10:09:02;4.22;;;2.92;;
47365;SDS011;33105;47.964;7.982;2023-05-07T10:12:04;5.10;;;3.00;;
47365;SDS011;33105;47.964;7.982;2023-05-07T10:15:09;8.27;;;2.78;;
47365;SDS011;33105;47.964;7.982;2023-05-07T10:18:12;4.30;;;2.53;;
47365;SDS011;33105;47.964;7.982;2023-05-07T10:21:21;5.40;;;2.10;;
47365;SDS011;33105;47.964;7.982;2023-05-07T10:24:26;2.15;;;1.08;;
47365;SDS011;33105;47.964;7.982;2023-05-07T10:27:34;8.32;;;1.52;;
47365;SDS011;33105;47.964;7.982;2023-05-07T10:34:15;5.10;;;1.85;;
47365;SDS011;33105;47.964;7.982;2023-05-07T10:37:20;5.72;;;1.65;;
47365;SDS011;33105;47.964;7.982;2023-05-07T10:40:23;6.88;;;2.08;;
47365;SDS011;33105;47.964;7.982;2023-05-07T10:43:34;7.53;;;2.47;;
47365;SDS011;33105;47.964;7.982;2023-05-07T10:46:43;6.22;;;2.50;;
47365;SDS011;33105;47.964;7.982;2023-05-07T10:59:34;10.38;;;5.03;;
47365;SDS011;33105;47.964;7.982;2023-05-07T11:06:15;8.82;;;3.78;;
47365;SDS011;33105;47.964;7.982;2023-05-07T11:12:56;4.90;;;3.53;;
47365;SDS011;33105;47.964;7.982;2023-05-07T11:16:03;8.00;;;4.45;;
47365;SDS011;33105;47.964;7.982;2023-05-07T11:23:01;6.50;;;4.00;;
47365;SDS011;33105;47.964;7.982;2023-05-07T11:26:11;9.10;;;4.15;;
47365;SDS011;33105;47.964;7.982;2023-05-07T11:29:15;11.55;;;4.65;;
47365;SDS011;33105;47.964;7.982;2023-05-07T11:32:24;9.32;;;4.18;;
47365;SDS011;33105;47.964;7.982;2023-05-07T11:35:28;7.70;;;4.03;;
47365;SDS011;33105;47.964;7.982;2023-05-07T11:38:34;9.35;;;4.05;;
47365;SDS011;33105;47.964;7.982;2023-05-07T11:41:37;10.25;;;4.15;;
47365;SDS011;33105;47.964;7.982;2023-05-07T11:44:42;8.82;;;3.95;;
47365;SDS011;33105;47.964;7.982;2023-05-07T11:47:44;6.75;;;4.20;;
47365;SDS011;33105;47.964;7.982;2023-05-07T11:50:50;7.93;;;3.60;;
47365;SDS011;33105;47.964;7.982;2023-05-07T11:53:52;8.32;;;3.15;;
47365;SDS011;33105;47.964;7.982;2023-05-07T11:56:55;6.93;;;4.00;;
47365;SDS011;33105;47.964;7.982;2023-05-07T11:59:57;6.15;;;4.07;;
47365;SDS011;33105;47.964;7.982;2023-05-07T12:03:06;5.88;;;3.53;;
47365;SDS011;33105;47.964;7.982;2023-05-07T12:06:07;6.20;;;3.60;;
47365;SDS011;33105;47.964;7.982;2023-05-07T12:09:10;7.68;;;3.90;;
47365;SDS011;33105;47.964;7.982;2023-05-07T12:12:12;5.28;;;3.08;;
47365;SDS011;33105;47.964;7.982;2023-05-07T12:15:16;7.05;;;4.10;;
47365;SDS011;33105;47.964;7.982;2023-05-07T12:18:18;7.93;;;3.85;;
47365;SDS011;33105;47.964;7.982;2023-05-07T12:21:21;3.92;;;3.03;;
47365;SDS011;33105;47.964;7.982;2023-05-07T12:24:24;5.35;;;3.10;;
47365;SDS011;33105;47.964;7.982;2023-05-07T12:27:25;4.32;;;2.90;;
47365;SDS011;33105;47.964;7.982;2023-05-07T12:30:27;4.57;;;3.22;;
47365;SDS011;33105;47.964;7.982;2023-05-07T12:33:28;4.45;;;2.97;;
47365;SDS011;33105;47.964;7.982;2023-05-07T12:36:38;7.45;;;2.90;;
47365;SDS011;33105;47.964;7.982;2023-05-07T12:39:47;5.22;;;3.20;;
47365;SDS011;33105;47.964;7.982;2023-05-07T12:42:52;7.10;;;3.63;;
47365;SDS011;33105;47.964;7.982;2023-05-07T12:45:57;5.15;;;3.72;;
47365;SDS011;33105;47.964;7.982;2023-05-07T12:49:00;5.53;;;3.45;;
47365;SDS011;33105;47.964;7.982;2023-05-07T12:52:02;5.55;;;3.42;;
47365;SDS011;33105;47.964;7.982;2023-05-07T12:55:07;7.70;;;3.83;;
47365;SDS011;33105;47.964;7.982;2023-05-07T12:58:16;5.80;;;3.08;;
47365;SDS011;33105;47.964;7.982;2023-05-07T13:01:19;6.00;;;3.83;;
47365;SDS011;33105;47.964;7.982;2023-05-07T13:04:20;5.05;;;3.20;;
47365;SDS011;33105;47.964;7.982;2023-05-07T13:07:25;4.97;;;3.67;;
47365;SDS011;33105;47.964;7.982;2023-05-07T13:10:27;7.28;;;3.97;;
47365;SDS011;33105;47.964;7.982;2023-05-07T13:13:29;8.05;;;4.63;;
47365;SDS011;33105;47.964;7.982;2023-05-07T13:16:31;12.00;;;4.88;;
47365;SDS011;33105;47.964;7.982;2023-05-07T13:19:33;8.20;;;5.03;;
47365;SDS011;33105;47.964;7.982;2023-05-07T13:22:36;9.27;;;4.65;;
47365;SDS011;33105;47.964;7.982;2023-05-07T13:25:39;5.78;;;5.15;;
47365;SDS011;33105;47.964;7.982;2023-05-07T13:28:41;5.80;;;4.72;;
47365;SDS011;33105;47.964;7.982;2023-05-07T13:31:43;15.55;;;5.80;;
47365;SDS011;33105;47.964;7.982;2023-05-07T13:34:45;9.35;;;6.20;;
47365;SDS011;33105;47.964;7.982;2023-05-07T13:37:46;11.65;;;6.60;;
47365;SDS011;33105;47.964;7.982;2023-05-07T13:40:49;12.27;;;7.57;;
47365;SDS011;33105;47.964;7.982;2023-05-07T13:43:50;14.85;;;8.65;;
47365;SDS011;33105;47.964;7.982;2023-05-07T13:46:52;11.85;;;7.97;;
47365;SDS011;33105;47.964;7.982;2023-05-07T13:49:53;9.40;;;7.63;;
47365;SDS011;33105;47.964;7.982;2023-05-07T13:52:55;11.07;;;6.63;;
47365;SDS011;33105;47.964;7.982;2023-05-07T13:55:56;5.85;;;3.47;;
47365;SDS011;33105;47.964;7.982;2023-05-07T13:58:58;3.25;;;2.10;;
47365;SDS011;33105;47.964;7.982;2023-05-07T14:01:59;2.22;;;1.98;;
47365;SDS011;33105;47.964;7.982;2023-05-07T14:05:00;3.22;;;2.10;;
47365;SDS011;33105;47.964;7.982;2023-05-07T14:08:02;3.28;;;2.35;;
47365;SDS011;33105;47.964;7.982;2023-05-07T14:11:05;5.03;;;2.10;;
47365;SDS011;33105;47.964;7.982;2023-05-07T14:14:07;1.80;;;1.38;;
47365;SDS011;33105;47.964;7.982;2023-05-07T14:17:08;5.65;;;3.00;;
47365;SDS011;33105;47.964;7.982;2023-05-07T14:20:10;2.92;;;2.20;;
47365;SDS011;33105;47.964;7.982;2023-05-07T14:23:12;4.82;;;2.08;;
47365;SDS011;33105;47.964;7.982;2023-05-07T14:26:13;7.07;;;2.38;;
47365;SDS011;33105;47.964;7.982;2023-05-07T14:29:14;5.78;;;2.95;;
47365;SDS011;33105;47.964;7.982;2023-05-07T14:32:19;5.15;;;2.60;;
47365;SDS011;33105;47.964;7.982;2023-05-07T14:35:21;6.45;;;2.95;;
47365;SDS011;33105;47.964;7.982;2023-05-07T14:38:22;4.85;;;2.65;;
47365;SDS011;33105;47.964;7.982;2023-05-07T14:41:24;5.50;;;2.83;;
47365;SDS011;33105;47.964;7.982;2023-05-07T14:44:25;3.72;;;2.50;;
47365;SDS011;33105;47.964;7.982;2023-05-07T14:47:26;5.88;;;3.63;;
47365;SDS011;33105;47.964;7.982;2023-05-07T14:50:28;7.45;;;3.47;;
47365;SDS011;33105;47.964;7.982;2023-05-07T14:53:29;7.63;;;3.50;;
47365;SDS011;33105;47.964;7.982;2023-05-07T14:56:30;12.80;;;5.15;;
47365;SDS011;33105;47.964;7.982;2023-05-07T14:59:32;7.18;;;6.22;;
47365;SDS011;33105;47.964;7.982;2023-05-07T15:02:33;6.93;;;4.63;;
47365;SDS011;33105;47.964;7.982;2023-05-07T15:05:36;9.02;;;4.60;;
47365;SDS011;33105;47.964;7.982;2023-05-07T15:08:37;10.70;;;5.75;;
47365;SDS011;33105;47.964;7.982;2023-05-07T15:11:38;6.28;;;4.72;;
47365;SDS011;33105;47.964;7.982;2023-05-07T15:14:40;7.45;;;4.68;;
47365;SDS011;33105;47.964;7.982;2023-05-07T15:17:42;5.65;;;4.60;;
47365;SDS011;33105;47.964;7.982;2023-05-07T15:20:44;8.30;;;5.03;;
47365;SDS011;33105;47.964;7.982;2023-05-07T15:23:45;9.77;;;4.95;;
47365;SDS011;33105;47.964;7.982;2023-05-07T15:26:47;5.75;;;4.40;;
47365;SDS011;33105;47.964;7.982;2023-05-07T15:29:49;7.57;;;4.95;;
47365;SDS011;33105;47.964;7.982;2023-05-07T15:32:50;6.35;;;4.53;;
47365;SDS011;33105;47.964;7.982;2023-05-07T15:35:52;7.45;;;4.38;;
47365;SDS011;33105;47.964;7.982;2023-05-07T15:38:54;5.72;;;3.75;;
47365;SDS011;33105;47.964;7.982;2023-05-07T15:41:56;9.23;;;4.13;;
47365;SDS011;33105;47.964;7.982;2023-05-07T15:44:58;9.00;;;3.58;;
47365;SDS011;33105;47.964;7.982;2023-05-07T15:48:01;4.68;;;3.80;;
47365;SDS011;33105;47.964;7.982;2023-05-07T15:51:04;5.32;;;3.63;;
47365;SDS011;33105;47.964;7.982;2023-05-07T15:54:07;6.75;;;3.30;;
47365;SDS011;33105;47.964;7.982;2023-05-07T15:57:09;3.85;;;3.33;;
47365;SDS011;33105;47.964;7.982;2023-05-07T16:00:11;5.22;;;3.47;;
47365;SDS011;33105;47.964;7.982;2023-05-07T16:03:13;8.90;;;3.83;;
47365;SDS011;33105;47.964;7.982;2023-05-07T16:06:16;4.05;;;2.70;;
47365;SDS011;33105;47.964;7.982;2023-05-07T16:09:17;3.42;;;2.30;;
47365;SDS011;33105;47.964;7.982;2023-05-07T16:12:19;3.65;;;2.15;;
47365;SDS011;33105;47.964;7.982;2023-05-07T16:15:20;4.20;;;1.85;;
47365;SDS011;33105;47.964;7.982;2023-05-07T16:18:21;3.53;;;1.75;;
47365;SDS011;33105;47.964;7.982;2023-05-07T16:21:23;3.67;;;1.77;;
47365;SDS011;33105;47.964;7.982;2023-05-07T16:24:24;4.05;;;1.75;;
47365;SDS011;33105;47.964;7.982;2023-05-07T16:27:25;3.03;;;1.52;;
47365;SDS011;33105;47.964;7.982;2023-05-07T16:30:27;4.18;;;1.75;;
47365;SDS011;33105;47.964;7.982;2023-05-07T16:33:28;4.10;;;1.90;;
47365;SDS011;33105;47.964;7.982;2023-05-07T16:36:29;3.03;;;1.90;;
47365;SDS011;33105;47.964;7.982;2023-05-07T16:39:31;5.40;;;1.88;;
47365;SDS011;33105;47.964;7.982;2023-05-07T16:42:32;2.22;;;1.75;;
47365;SDS011;33105;47.964;7.982;2023-05-07T16:45:35;2.92;;;1.67;;
47365;SDS011;33105;47.964;7.982;2023-05-07T16:48:36;5.32;;;2.00;;
47365;SDS011;33105;47.964;7.982;2023-05-07T16:51:37;3.10;;;2.00;;
47365;SDS011;33105;47.964;7.982;2023-05-07T16:54:40;3.05;;;1.70;;
47365;SDS011;33105;47.964;7.982;2023-05-07T16:57:41;4.07;;;1.90;;
47365;SDS011;33105;47.964;7.982;2023-05-07T17:00:42;3.72;;;1.67;;
47365;SDS011;33105;47.964;7.982;2023-05-07T17:03:44;3.22;;;1.98;;
47365;SDS011;33105;47.964;7.982;2023-05-07T17:06:45;2.55;;;1.90;;
47365;SDS011;33105;47.964;7.982;2023-05-07T17:09:46;2.42;;;1.98;;
47365;SDS011;33105;47.964;7.982;2023-05-07T17:12:48;2.53;;;1.80;;
47365;SDS011;33105;47.964;7.982;2023-05-07T17:15:49;7.30;;;2.20;;
47365;SDS011;33105;47.964;7.982;2023-05-07T17:18:51;6.18;;;1.73;;
47365;SDS011;33105;47.964;7.982;2023-05-07T17:21:52;5.80;;;2.25;;
47365;SDS011;33105;47.964;7.982;2023-05-07T17:24:54;3.30;;;2.03;;
47365;SDS011;33105;47.964;7.982;2023-05-07T17:27:56;6.18;;;2.38;;
47365;SDS011;33105;47.964;7.982;2023-05-07T17:30:57;5.70;;;2.58;;
47365;SDS011;33105;47.964;7.982;2023-05-07T17:33:59;5.72;;;2.28;;
47365;SDS011;33105;47.964;7.982;2023-05-07T17:37:01;7.43;;;2.30;;
47365;SDS011;33105;47.964;7.982;2023-05-07T17:40:02;5.95;;;2.20;;
47365;SDS011;33105;47.964;7.982;2023-05-07T17:43:04;5.65;;;2.38;;
47365;SDS011;33105;47.964;7.982;2023-05-07T17:46:07;7.57;;;2.85;;
47365;SDS011;33105;47.964;7.982;2023-05-07T17:49:08;2.78;;;2.38;;
47365;SDS011;33105;47.964;7.982;2023-05-07T17:52:10;2.40;;;2.20;;
47365;SDS011;33105;47.964;7.982;2023-05-07T17:55:11;3.85;;;2.42;;
47365;SDS011;33105;47.964;7.982;2023-05-07T17:58:12;3.80;;;2.40;;
47365;SDS011;33105;47.964;7.982;2023-05-07T18:01:13;4.75;;;2.42;;
47365;SDS011;33105;47.964;7.982;2023-05-07T18:04:15;6.65;;;2.17;;
47365;SDS011;33105;47.964;7.982;2023-05-07T18:07:16;6.28;;;2.45;;
47365;SDS011;33105;47.964;7.982;2023-05-07T18:10:18;4.15;;;2.10;;
47365;SDS011;33105;47.964;7.982;2023-05-07T18:13:19;7.78;;;2.40;;
47365;SDS011;33105;47.964;7.982;2023-05-07T18:16:21;4.43;;;2.20;;
47365;SDS011;33105;47.964;7.982;2023-05-07T18:19:22;6.63;;;2.63;;
47365;SDS011;33105;47.964;7.982;2023-05-07T18:22:25;3.45;;;2.60;;
47365;SDS011;33105;47.964;7.982;2023-05-07T18:25:26;7.50;;;2.70;;
47365;SDS011;33105;47.964;7.982;2023-05-07T18:28:28;7.43;;;2.58;;
47365;SDS011;33105;47.964;7.982;2023-05-07T18:31:29;7.38;;;2.88;;
47365;SDS011;33105;47.964;7.982;2023-05-07T18:34:31;6.43;;;2.38;;
47365;SDS011;33105;47.964;7.982;2023-05-07T18:37:32;5.13;;;2.90;;
47365;SDS011;33105;47.964;7.982;2023-05-07T18:40:34;3.83;;;2.53;;
47365;SDS011;33105;47.964;7.982;2023-05-07T18:43:35;12.77;;;3.30;;
47365;SDS011;33105;47.964;7.982;2023-05-07T18:46:36;4.55;;;3.33;;
47365;SDS011;33105;47.964;7.982;2023-05-07T18:49:38;8.55;;;4.68;;